Hovedside
METAR-TAF:

METAR-TAF

Lufthavner :

Beijing internasjonale lufthavn

Beijing, Kina

breddegrad: 39-56N, lengdegrad: 116-17E, høyde over havet: 55 m

Gjeldene værobservasjon

Denne rapporten ble laget for 21 minutter siden, klokken 17:00 UTC
Vind 6 kt fra Nord
Temperatur 26°C
Luftfuktighet 89%
Trykk 1004 hPa
Sikt 10 km eller mer
Brutte skyer i en høyde av 4000 ft
lette regnbyger

METAR: ZBAA 231700Z 36003MPS 9999 -SHRA BKN040 26/24 Q1004 NOSIG

Tid: 01:21 (17:21 UTC)

Varsel

Denne rapporten ble laget for 7 timer og 51 minutter siden, klokken 09:30 UTC
Varsel gyldig fra 23. klokken 12 UTC til 24. klokken 12 UTC
Vind 8 kt fra Nord
Sikt: 5000 m
lett regn, dis
Midlertidig
fra 23. klokken 22 UTC til 24. klokken 04 UTC
Sikt: 2000 m
regn, dis

TAF: ZBAA 230930Z 2312/2412 01004MPS 5000 -RA BR NSC TX28/2407Z TN24/2321Z TEMPO 2322/2404 2000 RA BR

Værobservasjoner og værvarsel for over 4000 flyplasser (METAR- og TAF-rapporter).

Tilgjengelige stasjoner er representert av de røde og gule prikkene på kartet.

Hold musepekeren over prikken for å se navnet på stasjonen.

Klikk så for å se værobservasjoner og -varsler.

For å forandre kartet kan du klikke på den grønne knappen med svart kryss for å zoome inn, på den grønne knappen med strek for å zoome ut, eller på de grønne pilene for å se tilstøtende kart.


METAR-TAF: